Time;durP1;ratioP1;P1;durP2;ratioP2;P2;SDS_P1;SDS_P2;PMS_P1;PMS_P2;Temp;Humidity;BMP_temperature;BMP_pressure;BME280_temperature;BME280_humidity;BME280_pressure;Samples;Min_cycle;Max_cycle;Signal;HPM_P1;HPM_P2
2023/10/19 00:00:43;;;;;;;24.47;15.00;;;9.50;99.90;;;;;;5078153;28;20442;-58
2023/10/19 00:03:09;;;;;;;21.40;15.10;;;9.50;99.90;;;;;;5081458;28;20456;-59
2023/10/19 00:05:35;;;;;;;25.03;14.17;;;9.60;99.90;;;;;;5083360;28;20435;-59
2023/10/19 00:08:14;;;;;;;26.93;15.80;;;9.50;99.90;;;;;;5082815;28;20216;-59
2023/10/19 00:10:42;;;;;;;32.27;15.03;;;9.50;99.90;;;;;;5082439;28;20485;-59
2023/10/19 00:13:11;;;;;;;27.37;16.50;;;9.50;99.90;;;;;;5080125;28;20867;-59
2023/10/19 00:15:46;;;;;;;25.53;15.40;;;9.50;99.90;;;;;;5080906;28;20820;-57
2023/10/19 00:23:13;;;;;;;25.10;16.17;;;9.50;99.90;;;;;;5085439;28;20463;-54
2023/10/19 00:25:41;;;;;;;31.13;15.13;;;9.50;99.90;;;;;;5084205;28;20504;-59
2023/10/19 00:28:14;;;;;;;24.20;15.53;;;9.50;99.90;;;;;;5082118;28;20448;-58
2023/10/19 00:30:42;;;;;;;26.20;15.87;;;9.50;99.90;;;;;;5078630;28;20440;-57
2023/10/19 00:33:16;;;;;;;27.57;16.13;;;9.50;99.90;;;;;;5078699;28;20896;-60
2023/10/19 00:35:51;;;;;;;24.00;16.00;;;9.50;99.90;;;;;;5084208;28;20473;-58
2023/10/19 00:38:21;;;;;;;25.17;15.80;;;9.50;99.90;;;;;;5079900;28;20446;-58
2023/10/19 00:40:56;;;;;;;25.33;16.20;;;9.50;99.90;;;;;;5079233;28;20444;-58
2023/10/19 00:43:36;;;;;;;22.97;15.83;;;9.50;99.90;;;;;;5082479;28;20467;-58
2023/10/19 00:46:09;;;;;;;26.33;15.27;;;9.50;99.90;;;;;;5080668;28;20436;-58
2023/10/19 00:48:35;;;;;;;25.77;16.17;;;9.50;99.90;;;;;;5081668;28;20446;-58
2023/10/19 00:51:23;;;;;;;28.00;15.27;;;9.50;99.90;;;;;;5080708;28;20428;-58
2023/10/19 00:53:49;;;;;;;24.60;16.10;;;9.50;99.90;;;;;;5081281;28;20460;-58
2023/10/19 00:56:18;;;;;;;22.53;15.20;;;9.50;99.90;;;;;;5083791;28;20530;-58
2023/10/19 00:58:52;;;;;;;26.20;15.97;;;9.50;99.90;;;;;;5080350;28;20436;-58
2023/10/19 01:01:24;;;;;;;25.37;16.17;;;9.50;99.90;;;;;;5080563;28;20783;-59
2023/10/19 01:03:52;;;;;;;29.43;16.70;;;9.50;99.90;;;;;;5078401;28;21052;-59
2023/10/19 01:06:20;;;;;;;24.27;15.33;;;9.40;99.90;;;;;;5082025;28;20996;-59
2023/10/19 01:08:46;;;;;;;25.67;15.70;;;9.50;99.90;;;;;;5078128;28;20634;-58
2023/10/19 01:11:15;;;;;;;26.43;15.97;;;9.40;99.90;;;;;;5081830;28;20526;-59
2023/10/19 01:13:44;;;;;;;22.60;16.17;;;9.50;99.90;;;;;;5080463;28;21178;-58
2023/10/19 01:16:23;;;;;;;25.73;14.53;;;9.50;99.90;;;;;;5081730;28;20518;-59
2023/10/19 01:18:54;;;;;;;24.40;15.57;;;9.40;99.90;;;;;;5079823;28;20516;-58
2023/10/19 01:21:24;;;;;;;27.33;15.70;;;9.40;99.90;;;;;;5081939;28;20539;-58
2023/10/19 01:23:50;;;;;;;26.00;15.13;;;9.40;99.90;;;;;;5080603;28;20452;-58
2023/10/19 01:26:21;;;;;;;22.80;15.50;;;9.40;99.90;;;;;;5081284;28;20428;-57
2023/10/19 01:28:47;;;;;;;24.70;15.67;;;9.30;99.90;;;;;;5077756;28;20186;-59
2023/10/19 01:34:00;;;;;;;23.23;14.13;;;9.30;99.90;;;;;;5078686;28;20494;-59
2023/10/19 01:36:27;;;;;;;25.27;15.67;;;9.30;99.90;;;;;;5083106;28;20439;-59
2023/10/19 01:38:55;;;;;;;26.63;15.47;;;9.30;99.90;;;;;;5076506;28;21175;-59
2023/10/19 01:41:24;;;;;;;32.37;15.50;;;9.30;99.90;;;;;;5081302;28;20422;-58
2023/10/19 01:43:54;;;;;;;27.83;16.40;;;9.30;99.90;;;;;;5082509;28;20458;-60
2023/10/19 01:46:23;;;;;;;27.13;15.67;;;9.20;99.90;;;;;;5083846;28;20462;-59
2023/10/19 01:48:54;;;;;;;31.63;16.30;;;9.20;99.90;;;;;;5075620;28;22398;-59
2023/10/19 01:51:20;;;;;;;25.57;15.33;;;9.20;99.90;;;;;;5078848;28;20488;-59
2023/10/19 01:53:47;;;;;;;26.50;16.07;;;9.20;99.90;;;;;;5076862;28;20464;-58
2023/10/19 01:56:17;;;;;;;24.40;15.43;;;9.20;99.90;;;;;;5082480;28;20479;-59
2023/10/19 01:58:48;;;;;;;23.93;15.27;;;9.20;99.90;;;;;;5080524;28;20443;-59
2023/10/19 02:03:57;;;;;;;24.87;14.97;;;9.20;99.90;;;;;;5079237;28;20467;-59
2023/10/19 02:06:28;;;;;;;25.50;15.50;;;9.20;99.90;;;;;;5081763;28;20805;-59
2023/10/19 02:09:09;;;;;;;24.30;14.77;;;9.20;99.90;;;;;;5080268;28;20443;-59
2023/10/19 02:11:37;;;;;;;28.87;14.93;;;9.20;99.90;;;;;;5077504;28;20434;-58
2023/10/19 02:14:13;;;;;;;25.00;15.60;;;9.20;99.90;;;;;;5078841;28;20465;-58
2023/10/19 02:16:43;;;;;;;21.90;14.67;;;9.20;99.90;;;;;;5080914;28;21215;-58
2023/10/19 02:19:12;;;;;;;23.80;16.23;;;9.20;99.90;;;;;;5080075;28;20433;-58
2023/10/19 02:21:42;;;;;;;26.37;16.37;;;9.30;99.90;;;;;;5079677;28;20473;-58
2023/10/19 02:24:09;;;;;;;29.27;17.63;;;9.30;99.90;;;;;;5080392;28;21195;-59
2023/10/19 02:26:37;;;;;;;27.10;16.30;;;9.30;99.90;;;;;;5080690;28;20507;-58
2023/10/19 02:29:09;;;;;;;31.93;17.10;;;9.30;99.90;;;;;;5078771;28;20455;-58
2023/10/19 02:31:42;;;;;;;33.47;18.13;;;9.30;99.90;;;;;;5078645;28;22466;-58
2023/10/19 02:34:10;;;;;;;28.83;16.93;;;9.30;99.90;;;;;;5072956;28;20560;-59
2023/10/19 02:36:37;;;;;;;43.23;18.83;;;9.30;99.90;;;;;;5079637;28;20447;-59
2023/10/19 02:39:08;;;;;;;36.83;18.83;;;9.30;99.90;;;;;;5094769;28;21032;-58
2023/10/19 02:41:38;;;;;;;30.20;18.10;;;9.30;99.90;;;;;;5080351;28;20424;-59
2023/10/19 02:44:09;;;;;;;;;;;;;;;;;;;;;
2023/10/19 02:46:33;;;;;;;33.53;17.37;;;9.30;99.90;;;;;;5080558;28;20797;-57
2023/10/19 02:49:11;;;;;;;30.07;17.90;;;9.30;99.90;;;;;;5077649;28;20459;-59
2023/10/19 02:51:41;;;;;;;29.40;16.87;;;9.30;99.90;;;;;;5080667;28;20184;-59
2023/10/19 02:54:08;;;;;;;28.33;16.77;;;9.30;99.90;;;;;;5078838;28;20568;-58
2023/10/19 02:56:35;;;;;;;28.10;16.00;;;9.30;99.90;;;;;;5082189;28;20625;-58
2023/10/19 02:59:03;;;;;;;35.13;17.77;;;9.30;99.90;;;;;;5085820;28;20447;-60
2023/10/19 03:01:33;;;;;;;21.63;14.00;;;9.20;99.90;;;;;;5084102;28;20926;-59
2023/10/19 03:04:02;;;;;;;32.97;14.83;;;9.30;99.90;;;;;;5080053;28;20516;-58
2023/10/19 03:06:31;;;;;;;27.07;15.73;;;9.30;99.90;;;;;;5081895;28;20508;-58
2023/10/19 03:09:22;;;;;;;28.30;15.37;;;9.30;99.90;;;;;;5084277;28;20526;-59
2023/10/19 03:11:52;;;;;;;29.97;16.67;;;9.20;99.90;;;;;;5084051;28;20435;-59
2023/10/19 03:14:18;;;;;;;26.53;15.60;;;9.20;99.90;;;;;;5080512;28;20427;-59
2023/10/19 03:16:45;;;;;;;24.83;15.90;;;9.20;99.90;;;;;;5085910;28;20428;-59
2023/10/19 03:19:12;;;;;;;24.83;15.83;;;9.20;99.90;;;;;;5083546;28;20857;-58
2023/10/19 03:21:48;;;;;;;25.10;15.07;;;9.20;99.90;;;;;;5080151;28;20436;-58
2023/10/19 03:24:23;;;;;;;20.23;13.30;;;9.20;99.90;;;;;;5083561;28;20570;-58
2023/10/19 03:26:49;;;;;;;22.00;14.70;;;9.20;99.90;;;;;;5083780;28;20432;-58
2023/10/19 03:29:25;;;;;;;26.73;14.60;;;9.10;99.90;;;;;;5084047;28;20423;-58
2023/10/19 03:31:52;;;;;;;20.97;14.20;;;9.10;99.90;;;;;;5084445;28;20419;-58
2023/10/19 03:34:17;;;;;;;25.90;14.40;;;9.10;99.90;;;;;;5080946;28;20432;-58
2023/10/19 03:36:43;;;;;;;26.27;14.83;;;9.10;99.90;;;;;;5083766;28;21034;-58
2023/10/19 03:39:13;;;;;;;28.23;15.10;;;9.10;99.90;;;;;;5081339;28;20256;-59
2023/10/19 03:41:42;;;;;;;22.90;15.60;;;9.10;99.90;;;;;;5082001;28;20192;-59
2023/10/19 03:44:13;;;;;;;21.80;14.50;;;9.00;99.90;;;;;;5082016;28;20995;-59
2023/10/19 03:46:52;;;;;;;27.23;15.87;;;9.00;99.90;;;;;;5085577;28;20425;-59
2023/10/19 03:49:21;;;;;;;26.63;15.23;;;9.00;99.90;;;;;;5080723;28;20477;-59
2023/10/19 03:52:20;;;;;;;85.10;17.93;;;9.00;99.90;;;;;;5080987;28;20901;-58
2023/10/19 03:54:47;;;;;;;29.23;15.40;;;9.00;99.90;;;;;;5083414;28;20431;-58
2023/10/19 03:57:22;;;;;;;40.00;16.40;;;9.00;99.90;;;;;;5088995;28;20435;-57
2023/10/19 03:59:58;;;;;;;68.70;17.30;;;8.90;99.90;;;;;;5085893;28;20538;-55
2023/10/19 04:02:29;;;;;;;26.40;15.17;;;8.90;99.90;;;;;;5089453;28;20797;-56
2023/10/19 04:04:57;;;;;;;26.73;15.80;;;8.90;99.90;;;;;;5092073;28;20455;-60
2023/10/19 04:07:25;;;;;;;26.47;16.97;;;8.90;99.90;;;;;;5086568;28;20458;-59
2023/10/19 04:12:25;;;;;;;23.67;15.30;;;8.90;99.90;;;;;;5076041;28;20428;-60
2023/10/19 04:14:51;;;;;;;24.93;16.00;;;8.90;99.90;;;;;;5075407;28;20507;-60
2023/10/19 04:17:20;;;;;;;23.97;15.67;;;8.90;99.90;;;;;;5087427;28;21188;-59
2023/10/19 04:19:48;;;;;;;22.67;14.60;;;9.00;99.90;;;;;;5079210;28;20158;-58
2023/10/19 04:22:22;;;;;;;25.03;15.53;;;9.00;99.90;;;;;;5079926;28;21713;-60
2023/10/19 04:24:48;;;;;;;31.60;15.37;;;9.00;99.90;;;;;;5082633;28;21557;-60
2023/10/19 04:27:14;;;;;;;26.20;16.47;;;9.00;99.90;;;;;;5079148;28;20455;-59
2023/10/19 04:29:43;;;;;;;28.60;16.77;;;9.00;99.90;;;;;;5062898;28;20431;-59
2023/10/19 04:32:09;;;;;;;28.37;16.50;;;9.00;99.90;;;;;;5075756;28;20424;-59
2023/10/19 04:34:36;;;;;;;23.60;15.27;;;9.10;99.90;;;;;;5081475;28;20531;-59
2023/10/19 04:37:03;;;;;;;28.00;15.87;;;9.00;99.90;;;;;;5082474;28;20461;-59
2023/10/19 04:39:30;;;;;;;25.60;15.40;;;9.10;99.90;;;;;;5080313;28;21007;-59
2023/10/19 04:41:55;;;;;;;25.20;15.17;;;9.10;99.90;;;;;;5082329;28;21200;-59
2023/10/19 04:44:22;;;;;;;23.70;15.40;;;9.10;99.90;;;;;;5085750;28;20463;-59
2023/10/19 04:46:48;;;;;;;25.37;15.73;;;9.10;99.90;;;;;;5085801;28;20201;-58
2023/10/19 04:49:16;;;;;;;31.37;19.13;;;9.10;99.90;;;;;;5086751;28;21162;-60
2023/10/19 04:51:43;;;;;;;29.90;16.70;;;9.10;99.90;;;;;;5089069;28;20455;-58
2023/10/19 04:54:09;;;;;;;27.60;15.80;;;9.10;99.90;;;;;;5087984;28;20418;-58
2023/10/19 04:56:35;;;;;;;27.80;15.40;;;9.10;99.90;;;;;;5082025;28;20519;-58
2023/10/19 04:59:02;;;;;;;29.30;16.30;;;9.10;99.90;;;;;;5087485;28;20594;-58
2023/10/19 05:01:28;;;;;;;22.93;14.83;;;9.10;99.90;;;;;;5076079;28;21098;-57
2023/10/19 05:03:54;;;;;;;25.67;16.30;;;9.10;99.90;;;;;;5085823;28;20494;-58
2023/10/19 05:06:19;;;;;;;23.63;15.23;;;9.10;99.90;;;;;;5086152;28;20615;-57
2023/10/19 05:08:46;;;;;;;23.10;15.00;;;9.10;99.90;;;;;;5082499;28;20823;-59
2023/10/19 05:11:12;;;;;;;24.67;14.83;;;9.20;99.90;;;;;;5082513;28;20557;-59
2023/10/19 05:13:39;;;;;;;24.60;15.83;;;9.20;99.90;;;;;;5087723;28;20454;-59
2023/10/19 05:16:05;;;;;;;25.40;16.80;;;9.20;99.90;;;;;;5086128;28;20443;-59
2023/10/19 05:18:30;;;;;;;26.57;16.83;;;9.20;99.90;;;;;;5085172;28;20528;-58
2023/10/19 05:20:56;;;;;;;28.57;16.87;;;9.20;99.90;;;;;;5085450;28;20432;-59
2023/10/19 05:23:27;;;;;;;21.40;14.80;;;9.20;99.90;;;;;;5088111;28;20288;-59
2023/10/19 05:25:59;;;;;;;24.20;16.60;;;9.10;99.90;;;;;;5081564;28;20165;-59
2023/10/19 05:28:25;;;;;;;24.90;16.50;;;9.20;99.90;;;;;;5074188;28;20486;-58
2023/10/19 05:30:51;;;;;;;25.10;14.50;;;9.20;99.90;;;;;;5081985;28;20447;-58
2023/10/19 05:33:20;;;;;;;23.90;15.63;;;9.20;99.90;;;;;;5080775;28;20177;-58
2023/10/19 05:35:47;;;;;;;28.73;16.30;;;9.20;99.90;;;;;;5086527;28;20177;-59
2023/10/19 05:38:12;;;;;;;29.20;17.40;;;9.20;99.90;;;;;;5074249;28;20468;-59
2023/10/19 05:40:38;;;;;;;25.77;16.70;;;9.20;99.90;;;;;;5087904;28;20412;-59
2023/10/19 05:43:05;;;;;;;28.30;16.80;;;9.30;99.90;;;;;;5085461;28;20292;-58
2023/10/19 05:45:32;;;;;;;28.90;16.90;;;9.30;99.90;;;;;;5085347;28;20909;-58
2023/10/19 05:47:57;;;;;;;27.43;17.30;;;9.30;99.90;;;;;;5080902;28;20508;-59
2023/10/19 05:50:24;;;;;;;26.33;16.23;;;9.30;99.90;;;;;;5083592;28;20421;-59
2023/10/19 05:52:51;;;;;;;25.80;14.90;;;9.30;99.90;;;;;;5087636;28;20322;-59
2023/10/19 05:55:17;;;;;;;28.87;15.80;;;9.30;99.90;;;;;;5087080;28;20910;-62
2023/10/19 05:57:44;;;;;;;22.70;13.77;;;9.30;99.90;;;;;;5075917;28;20428;-59
2023/10/19 06:00:14;;;;;;;24.27;14.57;;;9.30;99.90;;;;;;5080814;28;20178;-58
2023/10/19 06:02:43;;;;;;;20.43;13.57;;;9.30;99.90;;;;;;5078348;28;20495;-59
2023/10/19 06:05:09;;;;;;;26.53;14.50;;;9.30;99.90;;;;;;5079539;28;20530;-59
2023/10/19 06:07:35;;;;;;;19.40;13.37;;;9.30;99.90;;;;;;5080922;28;20970;-59
2023/10/19 06:10:04;;;;;;;23.57;15.10;;;9.40;99.90;;;;;;5075325;28;20214;-58
2023/10/19 06:12:31;;;;;;;20.00;13.33;;;9.40;99.90;;;;;;5077547;28;20170;-59
2023/10/19 06:14:56;;;;;;;21.50;13.30;;;9.40;99.90;;;;;;5076549;28;20461;-59
2023/10/19 06:17:23;;;;;;;21.40;13.87;;;9.40;99.90;;;;;;5085764;28;20493;-58
2023/10/19 06:19:49;;;;;;;25.60;15.27;;;9.40;99.90;;;;;;5075650;28;20181;-57
2023/10/19 06:22:16;;;;;;;36.23;20.00;;;9.30;99.90;;;;;;5074816;28;20431;-58
2023/10/19 06:24:43;;;;;;;41.90;21.37;;;9.40;99.90;;;;;;5075038;28;20186;-58
2023/10/19 06:27:09;;;;;;;33.93;18.47;;;9.40;99.90;;;;;;5077547;28;20988;-59
2023/10/19 06:29:35;;;;;;;28.40;16.70;;;9.40;99.90;;;;;;5074795;28;20953;-58
2023/10/19 06:32:01;;;;;;;25.67;15.30;;;9.40;99.90;;;;;;5083694;28;20439;-59
2023/10/19 06:34:27;;;;;;;28.80;15.20;;;9.40;99.90;;;;;;5086869;28;20327;-59
2023/10/19 06:36:54;;;;;;;22.80;13.50;;;9.40;99.90;;;;;;5076826;28;20601;-58
2023/10/19 06:39:21;;;;;;;21.77;13.47;;;9.40;99.90;;;;;;5079410;28;20459;-60
2023/10/19 06:41:46;;;;;;;23.80;14.40;;;9.40;99.90;;;;;;5081324;28;20912;-59
2023/10/19 06:44:13;;;;;;;22.57;13.57;;;9.40;99.90;;;;;;5075195;28;20466;-59
2023/10/19 06:46:39;;;;;;;25.27;14.93;;;9.40;99.90;;;;;;5079330;28;20185;-60
2023/10/19 06:49:05;;;;;;;25.20;14.87;;;9.40;99.90;;;;;;5084751;28;20436;-59
2023/10/19 06:51:33;;;;;;;22.37;13.67;;;9.50;99.90;;;;;;5082494;28;20174;-59
2023/10/19 06:53:58;;;;;;;24.23;14.33;;;9.40;99.90;;;;;;5082497;28;20443;-59
2023/10/19 06:56:24;;;;;;;27.63;15.20;;;9.50;99.90;;;;;;5087507;28;20439;-59
2023/10/19 06:58:50;;;;;;;27.03;14.80;;;9.50;99.90;;;;;;5072061;28;20261;-58
2023/10/19 07:01:17;;;;;;;30.43;16.80;;;9.50;99.90;;;;;;5079351;28;20184;-59
2023/10/19 07:03:44;;;;;;;28.93;18.07;;;9.50;99.90;;;;;;5079743;28;20224;-59
2023/10/19 07:06:13;;;;;;;31.67;18.17;;;9.60;99.90;;;;;;5081834;28;20427;-58
2023/10/19 07:08:40;;;;;;;28.47;18.20;;;9.60;99.90;;;;;;5082206;28;21010;-58
2023/10/19 07:11:07;;;;;;;29.20;17.50;;;9.60;99.90;;;;;;5082665;28;20416;-58
2023/10/19 07:13:33;;;;;;;27.10;15.97;;;9.60;99.90;;;;;;5082166;28;20405;-59
2023/10/19 07:15:59;;;;;;;28.77;15.63;;;9.60;99.90;;;;;;5081645;28;20440;-58
2023/10/19 07:18:25;;;;;;;21.90;14.67;;;9.60;99.90;;;;;;5078552;28;20436;-58
2023/10/19 07:20:53;;;;;;;30.77;16.27;;;9.60;99.90;;;;;;5088697;28;20181;-58
2023/10/19 07:23:19;;;;;;;23.83;15.80;;;9.70;99.90;;;;;;5088865;28;20268;-60
2023/10/19 07:25:47;;;;;;;24.40;15.70;;;9.70;99.90;;;;;;5090144;28;20420;-59
2023/10/19 07:28:14;;;;;;;27.00;16.80;;;9.70;99.90;;;;;;5080984;28;20536;-59
2023/10/19 07:30:41;;;;;;;28.13;15.90;;;9.70;99.90;;;;;;5081036;28;20420;-59
2023/10/19 07:33:10;;;;;;;25.43;16.10;;;9.70;99.90;;;;;;5081282;28;20518;-60
2023/10/19 07:35:42;;;;;;;22.73;14.60;;;9.70;99.90;;;;;;5082225;28;21348;-59
2023/10/19 07:38:08;;;;;;;21.10;14.40;;;9.80;99.90;;;;;;5080669;28;20451;-59
2023/10/19 07:40:36;;;;;;;28.30;15.37;;;9.80;99.90;;;;;;5086296;28;20816;-58
2023/10/19 07:43:03;;;;;;;22.63;13.90;;;9.80;99.90;;;;;;5084662;28;20487;-58
2023/10/19 07:45:31;;;;;;;27.20;15.30;;;9.90;99.90;;;;;;5077966;28;20423;-57
2023/10/19 07:47:57;;;;;;;23.73;14.77;;;9.90;99.90;;;;;;5080348;28;20530;-59
2023/10/19 07:50:23;;;;;;;24.57;16.50;;;10.00;99.90;;;;;;5076281;28;20527;-58
2023/10/19 07:52:53;;;;;;;26.30;16.23;;;10.00;99.90;;;;;;5081878;28;20519;-59
2023/10/19 07:55:22;;;;;;;25.60;15.43;;;10.00;99.90;;;;;;5081958;28;20174;-58
2023/10/19 07:57:50;;;;;;;29.93;15.87;;;10.10;99.90;;;;;;5085015;28;20478;-59
2023/10/19 08:00:17;;;;;;;29.23;16.67;;;10.10;99.90;;;;;;5085034;28;20440;-59
2023/10/19 08:02:46;;;;;;;26.13;16.30;;;10.10;99.90;;;;;;5082612;28;20980;-59
2023/10/19 08:05:13;;;;;;;24.00;15.40;;;10.20;99.90;;;;;;5078038;28;20459;-58
2023/10/19 08:07:42;;;;;;;24.63;15.00;;;10.20;99.90;;;;;;5081668;28;20474;-59
2023/10/19 08:10:12;;;;;;;30.67;16.33;;;10.20;99.90;;;;;;5083749;28;20416;-59
2023/10/19 08:12:41;;;;;;;25.40;15.00;;;10.20;99.90;;;;;;5084166;28;20847;-59
2023/10/19 08:15:08;;;;;;;28.17;17.70;;;10.30;99.90;;;;;;5077001;28;20434;-59
2023/10/19 08:17:33;;;;;;;21.80;15.00;;;10.30;99.90;;;;;;5083522;28;20455;-59
2023/10/19 08:20:03;;;;;;;25.10;16.10;;;10.30;99.90;;;;;;5081266;28;20915;-59
2023/10/19 08:22:30;;;;;;;27.33;17.47;;;10.40;99.90;;;;;;5084157;28;20668;-59
2023/10/19 08:24:55;;;;;;;26.00;16.40;;;10.40;99.90;;;;;;5080308;28;20423;-59
2023/10/19 08:27:21;;;;;;;27.63;16.57;;;10.40;99.90;;;;;;5077431;28;20880;-59
2023/10/19 08:29:50;;;;;;;28.60;15.93;;;10.40;99.90;;;;;;5084605;28;20674;-59
2023/10/19 08:32:16;;;;;;;32.33;16.47;;;10.40;99.90;;;;;;5081852;28;20424;-59
2023/10/19 08:34:41;;;;;;;30.63;15.83;;;10.40;99.90;;;;;;5072100;28;20424;-58
2023/10/19 08:37:07;;;;;;;25.00;16.27;;;10.50;99.90;;;;;;5080027;28;20240;-60
2023/10/19 08:39:36;;;;;;;33.20;16.10;;;10.40;99.90;;;;;;5077455;28;20265;-59
2023/10/19 08:42:04;;;;;;;31.03;16.03;;;10.50;99.90;;;;;;5081569;28;20201;-59
2023/10/19 08:44:30;;;;;;;30.33;17.23;;;10.50;99.90;;;;;;5082511;28;20463;-59
2023/10/19 08:46:57;;;;;;;31.40;16.43;;;10.50;99.90;;;;;;5075355;28;20433;-59
2023/10/19 08:49:23;;;;;;;30.23;16.77;;;10.50;99.90;;;;;;5082840;28;20439;-58
2023/10/19 08:51:51;;;;;;;32.03;16.60;;;10.50;99.90;;;;;;5082796;28;20431;-59
2023/10/19 08:54:16;;;;;;;31.83;18.10;;;10.50;99.90;;;;;;5086504;28;20853;-58
2023/10/19 08:56:43;;;;;;;28.97;17.07;;;10.50;99.90;;;;;;5084538;28;20436;-59
2023/10/19 08:59:12;;;;;;;30.50;17.53;;;10.60;99.90;;;;;;5083363;28;20731;-59
2023/10/19 09:01:38;;;;;;;40.70;21.70;;;10.60;99.90;;;;;;5081607;28;20961;-59
2023/10/19 09:04:07;;;;;;;45.20;22.37;;;10.60;99.90;;;;;;5081950;28;20914;-60
2023/10/19 09:06:42;;;;;;;30.93;16.90;;;10.70;99.90;;;;;;5078442;28;21247;-58
2023/10/19 09:09:25;;;;;;;26.87;16.70;;;10.70;99.90;;;;;;5077297;28;20439;-59
2023/10/19 09:11:55;;;;;;;35.10;18.90;;;10.80;99.90;;;;;;5081770;28;20479;-59
2023/10/19 09:14:50;;;;;;;29.00;16.97;;;10.80;99.90;;;;;;5076490;28;20459;-62
2023/10/19 09:17:17;;;;;;;37.77;21.30;;;10.90;99.90;;;;;;5062616;28;20548;-59
2023/10/19 09:19:47;;;;;;;30.33;20.23;;;10.90;99.90;;;;;;5084223;28;20435;-59
2023/10/19 09:22:18;;;;;;;36.70;20.40;;;10.90;99.90;;;;;;5080723;28;20446;-59
2023/10/19 09:24:45;;;;;;;36.57;20.83;;;11.00;99.90;;;;;;5074677;28;20470;-59
2023/10/19 09:27:12;;;;;;;31.57;18.67;;;11.00;99.90;;;;;;5074267;28;20968;-59
2023/10/19 09:29:38;;;;;;;33.93;20.17;;;11.00;99.90;;;;;;5075075;28;20515;-58
2023/10/19 09:32:06;;;;;;;33.60;18.80;;;11.00;99.90;;;;;;5074750;28;20549;-58
2023/10/19 09:34:33;;;;;;;32.30;19.03;;;11.00;99.90;;;;;;5077592;28;20531;-57
2023/10/19 09:37:03;;;;;;;30.90;18.10;;;11.10;99.90;;;;;;5080515;28;20444;-60
2023/10/19 09:39:35;;;;;;;30.47;18.97;;;11.10;99.90;;;;;;5081378;28;20594;-59
2023/10/19 09:42:10;;;;;;;56.07;34.10;;;11.10;99.90;;;;;;5081888;28;20789;-60
2023/10/19 09:44:50;;;;;;;30.87;19.97;;;11.20;99.90;;;;;;5080865;28;20462;-59
2023/10/19 09:47:26;;;;;;;32.77;19.20;;;11.20;99.90;;;;;;5075092;28;20487;-59
2023/10/19 09:49:52;;;;;;;32.47;18.00;;;11.30;99.90;;;;;;5080666;28;21088;-59
2023/10/19 09:52:18;;;;;;;35.10;19.73;;;11.30;99.90;;;;;;5081006;28;20431;-61
2023/10/19 09:54:54;;;;;;;33.13;20.20;;;11.40;99.90;;;;;;5080701;28;20279;-59
2023/10/19 09:57:31;;;;;;;29.03;19.60;;;11.40;99.90;;;;;;5083895;28;20432;-59
2023/10/19 10:00:13;;;;;;;33.47;18.90;;;11.50;99.90;;;;;;5078748;28;20858;-59
2023/10/19 10:02:42;;;;;;;26.67;17.70;;;11.50;99.90;;;;;;5080566;28;20436;-59
2023/10/19 10:05:42;;;;;;;37.10;19.33;;;11.50;99.90;;;;;;5083058;28;20435;-59
2023/10/19 10:08:20;;;;;;;28.40;17.07;;;11.50;99.90;;;;;;5083338;28;20471;-59
2023/10/19 10:10:51;;;;;;;34.70;18.97;;;11.50;99.90;;;;;;5086456;28;20518;-59
2023/10/19 10:13:29;;;;;;;26.17;16.50;;;11.50;99.90;;;;;;5084452;28;20847;-58
2023/10/19 10:15:57;;;;;;;31.87;15.97;;;11.50;99.90;;;;;;5086570;28;20904;-59
2023/10/19 10:18:29;;;;;;;27.73;16.37;;;11.50;99.90;;;;;;5086663;28;20459;-59
2023/10/19 10:21:18;;;;;;;30.77;17.87;;;11.60;99.90;;;;;;5085824;28;20431;-59
2023/10/19 10:23:47;;;;;;;28.83;17.30;;;11.70;99.90;;;;;;5087678;28;21001;-59
2023/10/19 10:26:14;;;;;;;32.30;17.50;;;11.80;99.90;;;;;;5080596;28;20438;-59
2023/10/19 10:28:45;;;;;;;27.30;18.00;;;12.00;99.90;;;;;;5082034;28;20458;-59
2023/10/19 10:31:21;;;;;;;27.70;17.63;;;12.10;99.90;;;;;;5085695;28;20431;-59
2023/10/19 10:33:51;;;;;;;27.90;16.17;;;12.30;99.90;;;;;;5080706;28;20437;-59
2023/10/19 10:36:19;;;;;;;26.30;17.43;;;12.40;99.90;;;;;;5085693;28;20485;-61
2023/10/19 10:39:05;;;;;;;27.20;16.53;;;12.50;99.90;;;;;;5089256;28;20541;-59
2023/10/19 10:41:31;;;;;;;28.70;18.23;;;12.50;99.90;;;;;;5086521;28;20427;-59
2023/10/19 10:43:58;;;;;;;29.37;18.73;;;12.60;99.90;;;;;;5088907;28;20626;-59
2023/10/19 10:46:31;;;;;;;36.80;21.10;;;12.70;99.90;;;;;;5088301;28;20436;-59
2023/10/19 10:48:57;;;;;;;39.90;22.70;;;12.70;99.90;;;;;;5094780;28;20534;-59
2023/10/19 10:51:27;;;;;;;40.13;22.00;;;12.80;99.90;;;;;;5091689;28;20993;-59
2023/10/19 10:53:54;;;;;;;32.90;20.70;;;12.90;99.90;;;;;;5086959;28;20727;-59
2023/10/19 10:56:21;;;;;;;37.17;21.50;;;13.00;99.90;;;;;;5092946;28;20834;-59
2023/10/19 10:58:48;;;;;;;30.40;19.47;;;13.10;99.90;;;;;;5092888;28;20435;-60
2023/10/19 11:01:14;;;;;;;39.70;19.33;;;13.20;99.90;;;;;;5087036;28;20450;-59
2023/10/19 11:03:43;;;;;;;22.40;14.87;;;13.40;99.90;;;;;;5088399;28;20516;-59
2023/10/19 11:06:11;;;;;;;27.07;15.97;;;13.50;99.90;;;;;;5092172;28;21108;-59
2023/10/19 11:08:38;;;;;;;26.93;16.13;;;13.60;99.90;;;;;;5091657;28;21684;-59
2023/10/19 11:11:11;;;;;;;23.37;15.53;;;13.60;99.90;;;;;;5091079;28;20454;-59
2023/10/19 11:13:38;;;;;;;23.27;14.80;;;13.70;99.90;;;;;;5091962;28;20842;-59
2023/10/19 11:16:06;;;;;;;29.53;15.37;;;13.70;99.90;;;;;;5091935;28;20424;-59
2023/10/19 11:18:39;;;;;;;24.93;15.83;;;13.70;99.90;;;;;;5090136;28;20505;-59
2023/10/19 11:21:10;;;;;;;25.23;17.00;;;13.80;99.90;;;;;;5086908;28;20428;-59
2023/10/19 11:23:39;;;;;;;28.50;18.53;;;14.00;99.90;;;;;;5085601;28;20559;-59
2023/10/19 11:26:07;;;;;;;27.63;18.03;;;14.10;99.90;;;;;;5086102;28;20442;-60
2023/10/19 11:28:33;;;;;;;23.77;16.40;;;14.30;99.90;;;;;;5093215;28;21007;-59
2023/10/19 11:31:17;;;;;;;30.43;17.87;;;14.40;99.90;;;;;;5090530;28;20510;-59
2023/10/19 11:33:44;;;;;;;24.50;14.10;;;14.60;99.90;;;;;;5085423;28;20531;-60
2023/10/19 11:36:12;;;;;;;24.60;16.10;;;14.70;99.90;;;;;;5072865;28;21005;-59
2023/10/19 11:38:39;;;;;;;19.80;14.30;;;15.00;99.90;;;;;;5087303;28;20489;-59
2023/10/19 11:41:05;;;;;;;17.00;11.80;;;15.40;99.90;;;;;;5079277;28;20431;-58
2023/10/19 11:43:31;;;;;;;13.73;9.57;;;16.00;99.90;;;;;;5086330;28;20516;-59
2023/10/19 11:45:56;;;;;;;10.60;8.07;;;16.70;99.90;;;;;;5084179;28;20679;-59
2023/10/19 11:48:22;;;;;;;11.50;8.13;;;17.20;99.90;;;;;;5085317;28;20750;-59
2023/10/19 11:50:48;;;;;;;9.80;7.50;;;17.60;99.90;;;;;;5086824;28;20181;-58
2023/10/19 11:53:13;;;;;;;7.90;6.23;;;17.80;99.90;;;;;;5084485;28;20687;-56
2023/10/19 11:55:41;;;;;;;5.77;4.93;;;17.80;99.90;;;;;;5086418;28;20245;-58
2023/10/19 11:58:11;;;;;;;7.97;4.87;;;17.50;99.90;;;;;;5082266;28;20206;-61
2023/10/19 12:00:37;;;;;;;8.17;4.93;;;17.20;99.90;;;;;;5087526;28;20424;-57
2023/10/19 12:03:04;;;;;;;6.50;4.63;;;16.90;99.90;;;;;;5083872;28;20468;-58
2023/10/19 12:05:30;;;;;;;7.30;5.20;;;16.70;99.90;;;;;;5079897;28;20439;-58
2023/10/19 12:07:56;;;;;;;8.27;5.20;;;16.50;99.90;;;;;;5086025;28;20548;-57
2023/10/19 12:10:32;;;;;;;5.37;4.57;;;16.30;99.90;;;;;;5086418;28;20439;-58
2023/10/19 12:12:58;;;;;;;18.87;4.67;;;16.10;99.90;;;;;;5081114;28;20508;-58
2023/10/19 12:15:25;;;;;;;6.27;4.07;;;15.90;99.90;;;;;;5081298;28;20526;-58
2023/10/19 12:17:51;;;;;;;5.93;4.43;;;15.80;99.90;;;;;;5085110;28;20205;-57
2023/10/19 12:20:18;;;;;;;6.00;4.40;;;15.70;99.90;;;;;;5084987;28;20428;-57
2023/10/19 12:22:47;;;;;;;7.40;4.87;;;15.60;99.90;;;;;;5083393;28;20174;-58
2023/10/19 12:25:14;;;;;;;9.90;6.90;;;15.50;99.90;;;;;;5081999;28;20472;-57
2023/10/19 12:27:40;;;;;;;9.03;7.20;;;15.50;99.90;;;;;;5081923;28;20460;-57
2023/10/19 12:30:16;;;;;;;10.87;6.73;;;15.50;99.90;;;;;;5082140;28;20557;-58
2023/10/19 12:32:43;;;;;;;9.83;6.43;;;15.40;99.90;;;;;;5081208;28;20949;-59
2023/10/19 12:35:11;;;;;;;12.13;6.23;;;15.30;99.90;;;;;;5080535;28;20453;-58
2023/10/19 12:37:46;;;;;;;8.20;5.80;;;15.30;99.90;;;;;;5080891;28;20451;-58
2023/10/19 12:40:28;;;;;;;15.27;6.47;;;15.30;99.90;;;;;;5079917;28;20442;-58
2023/10/19 12:42:54;;;;;;;12.37;7.13;;;15.30;99.90;;;;;;5083894;28;20460;-59
2023/10/19 12:45:25;;;;;;;7.77;5.93;;;15.20;99.90;;;;;;5078944;28;20471;-58
2023/10/19 12:47:51;;;;;;;10.70;6.40;;;15.20;99.90;;;;;;5086563;28;20447;-58
2023/10/19 12:50:22;;;;;;;7.60;5.40;;;15.20;99.90;;;;;;5083290;28;20954;-57
2023/10/19 12:52:50;;;;;;;7.93;4.70;;;15.20;99.90;;;;;;5082003;28;20424;-57
2023/10/19 12:55:19;;;;;;;10.73;5.87;;;15.20;99.90;;;;;;5085000;28;20484;-58
2023/10/19 12:57:44;;;;;;;5.33;4.67;;;15.20;99.90;;;;;;5083682;28;20459;-58